Time;durP1;ratioP1;P1;durP2;ratioP2;P2;SDS_P1;SDS_P2;PMS_P1;PMS_P2;Temp;Humidity;BMP_temperature;BMP_pressure;BME280_temperature;BME280_humidity;BME280_pressure;Samples;Min_cycle;Max_cycle;Signal;HPM_P1;HPM_P2
2022/11/17 00:01:07;;;;;;;7.83;4.80;;;;;6.90;92325.00;;;;7382737;19;20152;-74
2022/11/17 00:03:35;;;;;;;11.47;5.97;;;;;6.90;92333.00;;;;7384487;19;20148;-75
2022/11/17 00:06:04;;;;;;;8.63;5.67;;;;;7.10;92334.00;;;;7381569;19;20136;-77
2022/11/17 00:08:38;;;;;;;6.60;5.33;;;;;7.00;92331.00;;;;7382933;19;20517;-74
2022/11/17 00:11:06;;;;;;;7.97;5.40;;;;;7.00;92322.00;;;;7386583;19;20238;-75
2022/11/17 00:16:26;;;;;;;9.37;5.90;;;;;7.00;92315.00;;;;7386242;19;20587;-75
2022/11/17 00:21:46;;;;;;;9.50;6.27;;;;;6.90;92299.00;;;;7383534;19;20562;-75
2022/11/17 00:24:16;;;;;;;9.63;6.00;;;;;6.80;92302.00;;;;7385913;19;20135;-75
2022/11/17 00:27:01;;;;;;;10.97;5.80;;;;;7.00;92300.00;;;;7387144;19;20128;-75
2022/11/17 00:29:35;;;;;;;11.10;6.10;;;;;6.80;92290.00;;;;7384507;19;20648;-75
2022/11/17 00:35:05;;;;;;;8.70;6.83;;;;;6.70;92284.00;;;;7384883;19;20129;-75
2022/11/17 00:38:14;;;;;;;9.53;6.17;;;;;6.80;92288.00;;;;7385337;19;20484;-76
2022/11/17 00:40:33;;;;;;;9.43;6.47;;;;;6.70;92287.00;;;;7384318;19;20135;-74
2022/11/17 00:43:13;;;;;;;9.80;5.87;;;;;6.70;92277.00;;;;7381140;19;20176;-76
2022/11/17 00:45:48;;;;;;;8.17;6.27;;;;;6.70;92253.00;;;;7383112;19;20698;-76
2022/11/17 00:48:15;;;;;;;9.70;6.30;;;;;6.60;92257.00;;;;7384051;19;20146;-74
2022/11/17 00:50:43;;;;;;;11.07;6.50;;;;;6.50;92242.00;;;;7384740;19;20590;-75
2022/11/17 00:53:17;;;;;;;8.97;6.33;;;;;6.50;92236.00;;;;7383083;19;20614;-75
2022/11/17 00:55:44;;;;;;;10.43;5.97;;;;;6.70;92235.00;;;;7379493;19;20494;-74
2022/11/17 00:58:12;;;;;;;12.10;6.07;;;;;6.60;92226.00;;;;7384130;19;20148;-75
2022/11/17 01:00:48;;;;;;;8.07;5.73;;;;;6.50;92221.00;;;;7382900;19;20141;-75
2022/11/17 01:03:16;;;;;;;11.10;6.40;;;;;6.60;92231.00;;;;7382861;19;20157;-75
2022/11/17 01:05:43;;;;;;;7.83;6.50;;;;;6.50;92220.00;;;;7387527;19;20144;-77
2022/11/17 01:08:17;;;;;;;11.73;6.53;;;;;6.40;92222.00;;;;7391043;19;20152;-75
2022/11/17 01:10:44;;;;;;;8.17;6.53;;;;;6.60;92228.00;;;;7389515;19;20136;-75
2022/11/17 01:13:12;;;;;;;8.83;6.33;;;;;6.60;92225.00;;;;7393087;19;20129;-75
2022/11/17 01:15:46;;;;;;;9.17;6.57;;;;;6.60;92218.00;;;;7389925;19;20595;-75
2022/11/17 01:18:13;;;;;;;9.20;7.20;;;;;6.70;92219.00;;;;7391730;19;20137;-74
2022/11/17 01:20:41;;;;;;;9.87;6.40;;;;;6.70;92224.00;;;;7391347;19;20125;-75
2022/11/17 01:23:15;;;;;;;8.60;7.20;;;;;6.80;92220.00;;;;7391807;19;20137;-75
2022/11/17 01:25:42;;;;;;;11.53;7.73;;;;;6.90;92212.00;;;;7388222;19;20163;-74
2022/11/17 01:28:10;;;;;;;10.53;7.07;;;;;6.90;92207.00;;;;7391212;19;21180;-75
2022/11/17 01:30:44;;;;;;;10.43;6.97;;;;;6.80;92207.00;;;;7390547;19;20242;-75
2022/11/17 01:33:11;;;;;;;10.13;6.53;;;;;6.80;92195.00;;;;7390683;19;20171;-74
2022/11/17 01:35:39;;;;;;;8.33;6.80;;;;;6.80;92194.00;;;;7391245;19;20208;-75
2022/11/17 01:38:13;;;;;;;8.57;6.53;;;;;6.90;92172.00;;;;7389163;19;20243;-74
2022/11/17 01:40:40;;;;;;;10.07;7.13;;;;;7.00;92181.00;;;;7388939;19;20139;-74
2022/11/17 01:43:10;;;;;;;8.13;6.70;;;;;6.80;92159.00;;;;7388161;19;20176;-75
2022/11/17 01:45:51;;;;;;;8.90;6.50;;;;;6.90;92162.00;;;;7386991;19;20157;-75
2022/11/17 01:48:18;;;;;;;7.30;5.90;;;;;6.80;92160.00;;;;7388713;19;20155;-75
2022/11/17 01:50:52;;;;;;;8.17;6.10;;;;;6.70;92133.00;;;;7386457;19;20133;-74
2022/11/17 01:53:22;;;;;;;8.53;6.33;;;;;6.60;92139.00;;;;7388135;19;20204;-75
2022/11/17 01:55:55;;;;;;;7.03;5.77;;;;;6.60;92143.00;;;;7386539;19;20189;-75
2022/11/17 01:58:44;;;;;;;7.17;5.07;;;;;6.60;92146.00;;;;7386774;19;20124;-75
2022/11/17 02:01:12;;;;;;;9.37;5.90;;;;;6.70;92126.00;;;;7388364;19;20200;-75
2022/11/17 02:03:50;;;;;;;8.53;6.43;;;;;6.60;92122.00;;;;7387122;19;20619;-75
2022/11/17 02:06:30;;;;;;;8.73;6.00;;;;;6.50;92120.00;;;;7386255;19;20246;-75
2022/11/17 02:09:04;;;;;;;13.00;6.00;;;;;6.40;92114.00;;;;7389479;19;20145;-76
2022/11/17 02:11:34;;;;;;;9.03;5.83;;;;;6.30;92121.00;;;;7386421;19;20493;-75
2022/11/17 02:14:04;;;;;;;8.20;5.97;;;;;6.40;92118.00;;;;7386732;19;21674;-75
2022/11/17 02:16:38;;;;;;;8.80;6.23;;;;;6.40;92108.00;;;;7386975;19;20152;-74
2022/11/17 02:19:07;;;;;;;12.57;6.77;;;;;6.40;92104.00;;;;7388623;19;20148;-75
2022/11/17 02:21:43;;;;;;;8.40;6.27;;;;;6.30;92083.00;;;;7385830;19;20547;-75
2022/11/17 02:24:32;;;;;;;7.60;6.33;;;;;6.40;92083.00;;;;7386287;19;20150;-76
2022/11/17 02:27:13;;;;;;;7.63;6.17;;;;;6.50;92077.00;;;;7388874;19;20140;-74
2022/11/17 02:30:06;;;;;;;12.93;6.30;;;;;6.60;92079.00;;;;7389281;19;20129;-75
2022/11/17 02:33:05;;;;;;;8.90;6.30;;;;;6.60;92075.00;;;;7389226;19;20169;-75
2022/11/17 02:35:47;;;;;;;8.03;6.60;;;;;6.70;92073.00;;;;7387808;19;20160;-75
2022/11/17 02:38:48;;;;;;;8.77;6.00;;;;;7.00;92088.00;;;;7388309;19;20140;-75
2022/11/17 02:41:32;;;;;;;7.20;5.27;;;;;6.90;92090.00;;;;7389271;19;20141;-75
2022/11/17 02:44:32;;;;;;;10.43;5.60;;;;;6.90;92092.00;;;;7386445;19;20172;-75
2022/11/17 02:47:26;;;;;;;6.37;5.03;;;;;6.90;92094.00;;;;7387752;19;20595;-75
2022/11/17 02:50:01;;;;;;;8.37;5.50;;;;;6.90;92096.00;;;;7388815;19;20144;-75
2022/11/17 02:52:36;;;;;;;8.00;5.43;;;;;7.00;92085.00;;;;7386708;19;20200;-75
2022/11/17 02:55:07;;;;;;;5.97;4.87;;;;;6.80;92094.00;;;;7388013;19;20599;-75
2022/11/17 02:57:37;;;;;;;8.23;5.00;;;;;6.80;92082.00;;;;7385390;19;20213;-75
2022/11/17 03:00:17;;;;;;;7.57;4.80;;;;;6.90;92101.00;;;;7387891;19;20144;-75
2022/11/17 03:03:02;;;;;;;8.83;5.77;;;;;6.90;92090.00;;;;7388492;19;20654;-75
2022/11/17 03:05:52;;;;;;;9.27;5.60;;;;;6.80;92083.00;;;;7386841;19;20580;-75
2022/11/17 03:08:43;;;;;;;7.17;5.00;;;;;6.90;92076.00;;;;7389675;19;20116;-74
2022/11/17 03:11:25;;;;;;;7.00;5.03;;;;;6.70;92067.00;;;;7391967;19;20524;-75
2022/11/17 03:14:21;;;;;;;7.13;4.67;;;;;6.70;92056.00;;;;7392721;19;20156;-76
2022/11/17 03:17:19;;;;;;;7.43;5.00;;;;;6.50;92050.00;;;;7388568;19;21442;-75
2022/11/17 03:19:56;;;;;;;8.53;4.80;;;;;6.70;92049.00;;;;7388608;19;20522;-75
2022/11/17 03:23:06;;;;;;;9.23;5.57;;;;;6.40;92049.00;;;;7385586;19;20603;-75
2022/11/17 03:25:37;;;;;;;7.17;5.10;;;;;6.60;92071.00;;;;7384716;19;20175;-74
2022/11/17 03:28:13;;;;;;;9.60;5.80;;;;;6.50;92067.00;;;;7385556;19;20156;-76
2022/11/17 03:30:44;;;;;;;7.70;6.13;;;;;6.50;92054.00;;;;7390262;19;20136;-74
2022/11/17 03:33:21;;;;;;;6.70;5.53;;;;;6.50;92058.00;;;;7396370;19;20136;-74
2022/11/17 03:36:01;;;;;;;7.13;5.90;;;;;6.50;92051.00;;;;7392640;19;20153;-76
2022/11/17 03:38:43;;;;;;;9.93;6.20;;;;;6.60;92050.00;;;;7392196;19;20152;-75
2022/11/17 03:41:14;;;;;;;9.60;6.37;;;;;6.50;92043.00;;;;7392544;19;20128;-76
2022/11/17 03:44:03;;;;;;;9.73;6.70;;;;;6.60;92040.00;;;;7390431;19;20180;-76
2022/11/17 03:46:41;;;;;;;8.93;6.30;;;;;6.60;92052.00;;;;7386570;19;20151;-76
2022/11/17 03:49:28;;;;;;;10.77;6.37;;;;;6.60;92051.00;;;;7387185;19;20236;-76
2022/11/17 03:51:56;;;;;;;10.47;7.07;;;;;6.70;92050.00;;;;7388041;19;20611;-76
2022/11/17 03:54:30;;;;;;;10.37;7.03;;;;;6.60;92041.00;;;;7388655;19;20685;-76
2022/11/17 03:57:11;;;;;;;13.63;8.17;;;;;6.70;92046.00;;;;7384913;19;20173;-75
2022/11/17 03:59:54;;;;;;;13.43;7.57;;;;;6.70;92054.00;;;;7389892;19;20223;-76
2022/11/17 04:02:24;;;;;;;12.93;8.33;;;;;6.60;92055.00;;;;7388672;19;20148;-75
2022/11/17 04:05:05;;;;;;;13.27;8.23;;;;;6.80;92053.00;;;;7392996;19;20512;-75
2022/11/17 04:07:42;;;;;;;15.30;8.80;;;;;6.60;92056.00;;;;7391453;19;20209;-76
2022/11/17 04:10:19;;;;;;;10.50;8.67;;;;;6.80;92046.00;;;;7391046;19;20136;-76
2022/11/17 04:15:55;;;;;;;13.33;9.90;;;;;6.80;92038.00;;;;7393935;19;20152;-76
2022/11/17 04:18:23;;;;;;;15.47;9.70;;;;;6.80;92043.00;;;;7393841;19;20529;-76
2022/11/17 04:20:57;;;;;;;13.53;9.63;;;;;6.80;92038.00;;;;7394229;19;20168;-75
2022/11/17 04:23:25;;;;;;;16.20;9.77;;;;;6.80;92043.00;;;;7394860;19;20603;-76
2022/11/17 04:28:49;;;;;;;14.90;10.03;;;;;6.80;92029.00;;;;7394566;19;20155;-75
2022/11/17 04:31:23;;;;;;;15.60;11.23;;;;;6.90;92026.00;;;;7395049;19;20642;-77
2022/11/17 04:34:00;;;;;;;14.67;9.90;;;;;6.90;92023.00;;;;7394148;19;20136;-75
2022/11/17 04:36:35;;;;;;;14.33;10.63;;;;;6.90;92025.00;;;;7393322;19;20145;-76
2022/11/17 04:39:14;;;;;;;16.97;11.57;;;;;6.80;92022.00;;;;7394508;19;20567;-75
2022/11/17 04:42:01;;;;;;;17.17;12.30;;;;;6.90;92021.00;;;;7393208;19;20141;-76
2022/11/17 04:44:51;;;;;;;15.47;11.53;;;;;7.00;92021.00;;;;7391011;19;20801;-74
2022/11/17 04:47:25;;;;;;;17.30;11.10;;;;;7.00;92028.00;;;;7393127;19;20639;-76
2022/11/17 04:50:00;;;;;;;19.17;12.37;;;;;7.00;92028.00;;;;7393105;19;20125;-76
2022/11/17 04:52:28;;;;;;;20.57;11.67;;;;;6.90;92034.00;;;;7391091;19;20619;-77
2022/11/17 04:54:56;;;;;;;19.37;12.87;;;;;7.00;92021.00;;;;7392508;19;20164;-77
2022/11/17 04:57:31;;;;;;;19.83;12.87;;;;;7.00;92001.00;;;;7393230;19;20579;-75
2022/11/17 04:59:59;;;;;;;17.57;12.87;;;;;6.80;92006.00;;;;7393876;19;20599;-75
2022/11/17 05:02:27;;;;;;;18.53;12.67;;;;;6.90;92005.00;;;;7389476;19;20644;-76
2022/11/17 05:05:02;;;;;;;24.10;13.20;;;;;6.70;92013.00;;;;7390399;19;20136;-74
2022/11/17 05:07:30;;;;;;;22.93;14.40;;;;;6.80;92006.00;;;;7391117;19;20591;-76
2022/11/17 05:09:58;;;;;;;21.93;14.17;;;;;6.70;92010.00;;;;7387668;19;20576;-75
2022/11/17 05:17:03;;;;;;;22.70;14.80;;;;;6.90;92010.00;;;;7388107;19;20470;-75
2022/11/17 05:18:12;;;;;;;22.80;15.73;;;;;6.90;92016.00;;;;7385658;19;20167;-75
2022/11/17 05:20:40;;;;;;;24.37;15.37;;;;;6.90;92020.00;;;;7383154;19;20166;-76
2022/11/17 05:26:02;;;;;;;25.73;17.60;;;;;6.90;92019.00;;;;7384192;19;20161;-76
2022/11/17 05:28:31;;;;;;;25.93;16.87;;;;;6.90;92018.00;;;;7385177;19;20137;-74
2022/11/17 05:30:58;;;;;;;24.73;15.37;;;;;7.00;92021.00;;;;7387435;19;20172;-76
2022/11/17 05:33:33;;;;;;;24.27;16.73;;;;;7.00;92005.00;;;;7387866;19;20164;-76
2022/11/17 05:36:04;;;;;;;29.27;17.07;;;;;6.90;92001.00;;;;7387030;19;20145;-76
2022/11/17 05:38:32;;;;;;;25.80;17.53;;;;;6.90;91999.00;;;;7384509;19;20597;-76
2022/11/17 05:41:07;;;;;;;26.43;17.60;;;;;6.90;92016.00;;;;7382790;19;20137;-76
2022/11/17 05:43:49;;;;;;;24.93;17.60;;;;;6.90;92018.00;;;;7382453;19;20532;-76
2022/11/17 05:46:23;;;;;;;28.67;16.33;;;;;6.90;92019.00;;;;7381436;19;20153;-76
2022/11/17 05:48:52;;;;;;;31.70;16.87;;;;;6.90;92018.00;;;;7384161;19;20611;-76
2022/11/17 05:51:23;;;;;;;24.00;16.00;;;;;6.90;92023.00;;;;7386924;19;20626;-77
2022/11/17 05:53:57;;;;;;;26.87;17.07;;;;;7.00;92034.00;;;;7390625;19;20156;-77
2022/11/17 05:56:49;;;;;;;26.13;16.20;;;;;6.90;92024.00;;;;7389072;19;20173;-76
2022/11/17 05:59:52;;;;;;;26.37;15.60;;;;;6.90;92032.00;;;;7388280;19;20650;-76
2022/11/17 06:02:23;;;;;;;26.33;16.17;;;;;6.80;92024.00;;;;7388364;19;20144;-76
2022/11/17 06:04:57;;;;;;;29.20;16.47;;;;;6.80;92016.00;;;;7388629;19;20149;-76
2022/11/17 06:07:25;;;;;;;23.87;15.87;;;;;6.90;92022.00;;;;7387757;19;20253;-77
2022/11/17 06:09:53;;;;;;;24.23;15.43;;;;;6.70;92024.00;;;;7389638;19;20146;-77
2022/11/17 06:12:27;;;;;;;22.87;15.37;;;;;6.80;92028.00;;;;7389288;19;20158;-77
2022/11/17 06:14:54;;;;;;;23.00;15.60;;;;;6.80;92024.00;;;;7391079;19;20173;-75
2022/11/17 06:17:27;;;;;;;27.50;15.67;;;;;6.80;92021.00;;;;7390826;19;20159;-77
2022/11/17 06:20:12;;;;;;;22.47;16.00;;;;;6.90;92032.00;;;;7390373;19;20125;-75
2022/11/17 06:22:40;;;;;;;25.23;15.43;;;;;6.70;92051.00;;;;7387479;19;20148;-75
2022/11/17 06:25:17;;;;;;;21.07;14.00;;;;;6.60;92041.00;;;;7392502;19;20140;-76
2022/11/17 06:27:46;;;;;;;27.87;15.53;;;;;6.50;92047.00;;;;7385235;19;20641;-76
2022/11/17 06:30:14;;;;;;;23.87;14.50;;;;;6.50;92052.00;;;;7389240;19;20134;-76
2022/11/17 06:32:49;;;;;;;20.87;14.07;;;;;6.60;92053.00;;;;7388683;19;21479;-75
2022/11/17 06:35:16;;;;;;;22.37;14.13;;;;;6.50;92044.00;;;;7387259;19;20654;-75
2022/11/17 06:37:44;;;;;;;23.37;13.57;;;;;6.40;92035.00;;;;7386471;19;20220;-75
2022/11/17 06:40:18;;;;;;;23.43;13.83;;;;;6.30;92023.00;;;;7387853;19;20135;-75
2022/11/17 06:45:46;;;;;;;23.70;13.53;;;;;6.30;92017.00;;;;7383692;19;20172;-76
2022/11/17 06:48:16;;;;;;;22.77;13.00;;;;;6.50;92022.00;;;;7385687;19;20586;-76
2022/11/17 06:50:50;;;;;;;24.10;13.30;;;;;6.40;92021.00;;;;7387088;19;20152;-75
2022/11/17 06:53:18;;;;;;;28.40;12.93;;;;;6.30;92032.00;;;;7387463;19;20152;-76
2022/11/17 06:55:50;;;;;;;17.23;12.30;;;;;6.20;92036.00;;;;7387411;19;20141;-78
2022/11/17 06:58:24;;;;;;;22.30;12.37;;;;;6.30;92046.00;;;;7385677;19;20133;-77
2022/11/17 07:00:52;;;;;;;21.43;13.63;;;;;6.40;92034.00;;;;7387090;19;20515;-77
2022/11/17 07:03:19;;;;;;;32.30;14.97;;;;;6.50;92035.00;;;;7384182;19;20531;-77
2022/11/17 07:05:59;;;;;;;25.50;13.53;;;;;6.60;92014.00;;;;7384349;19;20156;-76
2022/11/17 07:08:27;;;;;;;24.30;13.97;;;;;6.70;92034.00;;;;7385267;19;20131;-76
2022/11/17 07:11:06;;;;;;;20.20;13.50;;;;;6.90;92030.00;;;;7384992;19;21509;-77
2022/11/17 07:13:35;;;;;;;23.20;12.83;;;;;6.90;92037.00;;;;7383352;19;20157;-77
2022/11/17 07:16:15;;;;;;;23.20;12.83;;;;;7.00;92042.00;;;;7386089;19;20133;-76
2022/11/17 07:18:51;;;;;;;26.77;13.40;;;;;6.90;92043.00;;;;7386032;19;20588;-76
2022/11/17 07:21:26;;;;;;;21.53;11.40;;;;;6.90;92043.00;;;;7382208;19;20561;-75
2022/11/17 07:23:54;;;;;;;17.07;10.80;;;;;6.80;92038.00;;;;7383455;19;20144;-76
2022/11/17 07:26:22;;;;;;;18.00;11.07;;;;;7.10;92041.00;;;;7385660;19;20588;-78
2022/11/17 07:29:03;;;;;;;15.23;10.83;;;;;7.00;92051.00;;;;7384391;19;20816;-76
2022/11/17 07:31:33;;;;;;;14.53;10.20;;;;;7.00;92042.00;;;;7385170;19;20128;-77
2022/11/17 07:34:08;;;;;;;20.10;11.03;;;;;7.10;92056.00;;;;7384129;19;20143;-78
2022/11/17 07:36:36;;;;;;;15.67;9.07;;;;;7.20;92033.00;;;;7384983;19;20141;-77
2022/11/17 07:39:05;;;;;;;16.37;8.70;;;;;7.20;92034.00;;;;7387465;19;20536;-76
2022/11/17 07:41:47;;;;;;;14.10;8.20;;;;;7.20;92022.00;;;;7385553;19;20632;-77
2022/11/17 07:44:22;;;;;;;12.97;7.83;;;;;7.30;92039.00;;;;7381428;19;20172;-76
2022/11/17 07:46:56;;;;;;;13.63;7.80;;;;;7.20;92036.00;;;;7383149;19;20165;-76
2022/11/17 07:49:27;;;;;;;13.40;7.17;;;;;7.30;92050.00;;;;7386518;19;20160;-76
2022/11/17 07:51:54;;;;;;;11.90;6.77;;;;;7.50;92053.00;;;;7385297;19;20208;-76
2022/11/17 07:54:28;;;;;;;8.90;4.27;;;;;7.70;92056.00;;;;7384703;19;20140;-76
2022/11/17 07:56:56;;;;;;;7.53;3.23;;;;;8.30;92040.00;;;;7384426;19;20149;-77
2022/11/17 07:59:24;;;;;;;10.07;3.50;;;;;8.70;92040.00;;;;7384907;19;20137;-76
2022/11/17 08:01:58;;;;;;;11.40;2.40;;;;;9.00;92046.00;;;;7383725;19;20144;-77
2022/11/17 08:04:26;;;;;;;8.03;2.93;;;;;9.10;92041.00;;;;7382154;19;21622;-75
2022/11/17 08:06:54;;;;;;;8.43;2.50;;;;;9.10;92056.00;;;;7381618;19;20712;-75
2022/11/17 08:09:29;;;;;;;3.20;1.90;;;;;9.00;92050.00;;;;7381629;19;20129;-75
2022/11/17 08:11:58;;;;;;;3.40;1.40;;;;;8.80;92043.00;;;;7383801;19;20133;-75
2022/11/17 08:14:26;;;;;;;2.67;1.30;;;;;8.70;92056.00;;;;7380423;19;20159;-76
2022/11/17 08:17:07;;;;;;;4.23;1.30;;;;;8.60;92057.00;;;;7381657;19;20671;-75
2022/11/17 08:19:34;;;;;;;7.50;1.33;;;;;8.50;92063.00;;;;7382642;19;20173;-75
2022/11/17 08:22:09;;;;;;;3.50;1.10;;;;;8.50;92062.00;;;;7383722;19;20124;-75
2022/11/17 08:24:36;;;;;;;2.70;1.37;;;;;8.50;92070.00;;;;7383364;19;20192;-75
2022/11/17 08:27:04;;;;;;;3.33;0.90;;;;;8.60;92056.00;;;;7381000;19;20582;-75
2022/11/17 08:29:38;;;;;;;3.33;1.30;;;;;8.50;92057.00;;;;7383771;19;20447;-75
2022/11/17 08:32:06;;;;;;;4.23;0.90;;;;;8.50;92062.00;;;;7381361;19;20152;-76
2022/11/17 08:34:34;;;;;;;3.23;1.00;;;;;8.60;92057.00;;;;7380359;19;20542;-77
2022/11/17 08:37:08;;;;;;;3.80;1.30;;;;;8.70;92057.00;;;;7358973;19;20462;-75
2022/11/17 08:39:36;;;;;;;1.77;0.97;;;;;8.80;92051.00;;;;7377591;19;20143;-74
2022/11/17 08:42:04;;;;;;;4.13;0.83;;;;;8.80;92077.00;;;;7379820;19;20141;-76
2022/11/17 08:44:52;;;;;;;1.63;0.70;;;;;8.70;92082.00;;;;7378485;19;20175;-75
2022/11/17 08:47:26;;;;;;;3.33;1.00;;;;;8.70;92072.00;;;;7382514;19;20136;-75
2022/11/17 08:50:00;;;;;;;8.50;2.07;;;;;8.70;92079.00;;;;7384490;19;20603;-76
2022/11/17 08:52:29;;;;;;;3.00;1.20;;;;;8.70;92084.00;;;;7383416;19;20128;-76
2022/11/17 08:54:57;;;;;;;1.80;1.03;;;;;8.90;92080.00;;;;7357109;19;20565;-76
2022/11/17 08:57:32;;;;;;;3.93;0.90;;;;;9.00;92087.00;;;;7377922;19;20968;-76
2022/11/17 09:00:04;;;;;;;1.97;0.90;;;;;9.00;92082.00;;;;7383912;19;20125;-76
2022/11/17 09:02:39;;;;;;;4.73;1.10;;;;;9.00;92097.00;;;;7381768;19;20145;-75
2022/11/17 09:05:07;;;;;;;4.67;1.40;;;;;9.00;92095.00;;;;7381012;19;20164;-77
2022/11/17 09:07:35;;;;;;;1.47;0.97;;;;;9.00;92092.00;;;;7379163;19;20140;-75
2022/11/17 09:10:10;;;;;;;4.63;1.20;;;;;9.00;92112.00;;;;7380828;19;20173;-76
2022/11/17 09:12:37;;;;;;;5.00;1.10;;;;;9.00;92111.00;;;;7380548;19;21008;-77
2022/11/17 09:15:06;;;;;;;4.17;1.37;;;;;8.80;92110.00;;;;7380696;19;20185;-76
2022/11/17 09:17:47;;;;;;;3.07;0.90;;;;;8.60;92118.00;;;;7380613;19;20570;-75
2022/11/17 09:20:17;;;;;;;5.67;1.20;;;;;8.60;92114.00;;;;7380623;19;20153;-78
2022/11/17 09:22:52;;;;;;;3.87;1.03;;;;;8.70;92100.00;;;;7382907;19;20472;-78
2022/11/17 09:25:25;;;;;;;4.03;1.10;;;;;8.80;92100.00;;;;7384968;19;20190;-76
2022/11/17 09:28:00;;;;;;;6.33;1.20;;;;;8.80;92112.00;;;;7386929;19;20536;-76
2022/11/17 09:30:28;;;;;;;3.93;1.13;;;;;8.80;92115.00;;;;7388395;19;20833;-75
2022/11/17 09:32:57;;;;;;;5.87;0.93;;;;;8.90;92118.00;;;;7388262;19;20166;-75
2022/11/17 09:35:31;;;;;;;4.47;1.00;;;;;8.90;92115.00;;;;7387922;19;20684;-76
2022/11/17 09:38:00;;;;;;;5.73;1.00;;;;;9.10;92127.00;;;;7387167;19;20149;-76
2022/11/17 09:40:28;;;;;;;5.07;1.07;;;;;9.00;92125.00;;;;7386239;19;20160;-74
2022/11/17 09:43:17;;;;;;;3.27;1.00;;;;;8.90;92137.00;;;;7389123;19;21429;-76
2022/11/17 09:45:57;;;;;;;2.67;0.87;;;;;8.80;92130.00;;;;7387957;19;20149;-74
2022/11/17 09:49:13;;;;;;;4.37;1.17;;;;;8.70;92115.00;;;;7386180;19;20140;-74
2022/11/17 09:51:45;;;;;;;2.47;0.90;;;;;8.60;92116.00;;;;7389828;19;20251;-74
2022/11/17 09:54:39;;;;;;;7.63;1.30;;;;;8.60;92117.00;;;;7387445;19;20132;-76
2022/11/17 09:57:19;;;;;;;2.90;1.40;;;;;8.60;92103.00;;;;7385401;19;20186;-74
2022/11/17 10:00:12;;;;;;;3.53;1.17;;;;;8.70;92111.00;;;;7388746;19;20627;-74
2022/11/17 10:02:41;;;;;;;6.70;1.57;;;;;8.70;92121.00;;;;7388220;19;20157;-75
2022/11/17 10:05:26;;;;;;;4.97;1.20;;;;;8.70;92117.00;;;;7387234;19;20160;-76
2022/11/17 10:07:58;;;;;;;6.27;1.43;;;;;8.70;92134.00;;;;7384574;19;20611;-74
2022/11/17 10:10:43;;;;;;;4.23;1.00;;;;;8.70;92121.00;;;;7388081;19;20199;-75
2022/11/17 10:13:24;;;;;;;8.73;1.80;;;;;8.70;92139.00;;;;7387288;19;20575;-75
2022/11/17 10:16:06;;;;;;;3.73;1.20;;;;;8.50;92141.00;;;;7387613;19;20598;-75
2022/11/17 10:18:37;;;;;;;7.07;1.67;;;;;8.70;92134.00;;;;7389137;19;20583;-76
2022/11/17 10:21:11;;;;;;;9.17;1.40;;;;;8.60;92145.00;;;;7388476;19;20152;-75
2022/11/17 10:23:43;;;;;;;6.53;1.10;;;;;8.50;92140.00;;;;7389207;19;20462;-75
2022/11/17 10:26:15;;;;;;;4.30;1.47;;;;;8.80;92148.00;;;;7389435;19;20152;-76
2022/11/17 10:29:10;;;;;;;3.80;1.47;;;;;8.70;92154.00;;;;7364087;19;20148;-77
2022/11/17 10:31:44;;;;;;;5.50;1.50;;;;;8.70;92157.00;;;;7386553;19;20148;-76
2022/11/17 10:34:34;;;;;;;7.17;1.70;;;;;8.70;92161.00;;;;7387881;19;20149;-76
2022/11/17 10:37:16;;;;;;;6.93;1.33;;;;;8.80;92156.00;;;;7385957;19;20674;-76
2022/11/17 10:40:01;;;;;;;6.63;1.70;;;;;9.10;92154.00;;;;7386225;19;20125;-76
2022/11/17 10:42:29;;;;;;;5.53;1.40;;;;;9.00;92153.00;;;;7387909;19;20128;-75
2022/11/17 10:45:21;;;;;;;4.83;1.10;;;;;9.00;92159.00;;;;7385381;19;20922;-75
2022/11/17 10:47:48;;;;;;;4.57;1.20;;;;;8.90;92157.00;;;;7386869;19;20610;-75
2022/11/17 10:50:26;;;;;;;2.80;1.23;;;;;9.80;92134.00;;;;7384795;19;20631;-75
2022/11/17 10:53:21;;;;;;;6.83;1.50;;;;;9.90;92138.00;;;;7385737;19;20132;-75
2022/11/17 10:56:12;;;;;;;4.87;1.53;;;;;10.10;92131.00;;;;7385300;19;20155;-74
2022/11/17 10:58:57;;;;;;;6.77;1.37;;;;;10.70;92148.00;;;;7384298;19;20883;-75
2022/11/17 11:01:37;;;;;;;3.17;1.27;;;;;9.80;92160.00;;;;7384706;19;20149;-75
2022/11/17 11:04:06;;;;;;;5.10;1.27;;;;;9.40;92154.00;;;;7386310;19;20137;-75
2022/11/17 11:06:40;;;;;;;10.90;1.40;;;;;9.50;92146.00;;;;7387707;19;20148;-75
2022/11/17 11:09:18;;;;;;;6.87;1.07;;;;;9.40;92144.00;;;;7383583;19;20143;-75
2022/11/17 11:11:57;;;;;;;6.30;1.50;;;;;9.70;92133.00;;;;7387538;19;20125;-76
2022/11/17 11:14:47;;;;;;;6.33;1.33;;;;;10.60;92135.00;;;;7385047;19;20620;-76
2022/11/17 11:17:26;;;;;;;4.50;1.20;;;;;10.00;92151.00;;;;7385919;19;20515;-75
2022/11/17 11:19:54;;;;;;;3.75;1.23;;;;;9.10;92165.00;;;;7384455;19;20505;-75
2022/11/17 11:23:06;;;;;;;2.40;0.90;;;;;9.20;92160.00;;;;7384965;19;21075;-75
2022/11/17 11:26:07;;;;;;;6.80;1.17;;;;;9.50;92158.00;;;;7385429;19;20602;-75
2022/11/17 11:28:47;;;;;;;3.57;1.20;;;;;9.70;92165.00;;;;7384759;19;20139;-75
2022/11/17 11:31:49;;;;;;;3.70;0.77;;;;;9.20;92171.00;;;;7385108;19;20144;-75
2022/11/17 11:34:38;;;;;;;1.97;0.83;;;;;9.40;92139.00;;;;7386395;19;20829;-75
2022/11/17 11:37:14;;;;;;;2.87;0.93;;;;;10.70;92139.00;;;;7383882;19;20717;-76
2022/11/17 11:39:54;;;;;;;2.72;1.08;;;;;11.30;92139.00;;;;7385914;19;20157;-75
2022/11/17 11:42:46;;;;;;;3.08;1.02;;;;;11.80;92117.00;;;;7383453;19;20164;-76
2022/11/17 11:45:54;;;;;;;3.88;0.90;;;;;12.00;92126.00;;;;7382120;19;20163;-75
2022/11/17 11:48:32;;;;;;;2.75;1.10;;;;;12.50;92134.00;;;;7380192;19;20129;-76
2022/11/17 11:51:23;;;;;;;3.75;0.90;;;;;12.50;92126.00;;;;7381619;19;20146;-75
2022/11/17 11:54:22;;;;;;;1.80;1.00;;;;;12.50;92133.00;;;;7386140;19;20133;-77
2022/11/17 11:56:53;;;;;;;2.35;0.93;;;;;12.50;92114.00;;;;7382815;19;20177;-76
2022/11/17 11:59:36;;;;;;;3.85;1.00;;;;;12.60;92130.00;;;;7381332;19;20148;-76
2022/11/17 12:02:22;;;;;;;5.43;1.00;;;;;12.10;92148.00;;;;7382841;19;20147;-76
2022/11/17 12:05:15;;;;;;;5.43;1.38;;;;;11.50;92156.00;;;;7379897;19;20238;-77
2022/11/17 12:08:14;;;;;;;4.60;1.20;;;;;11.40;92128.00;;;;7380884;19;20201;-76
2022/11/17 12:11:59;;;;;;;8.52;1.60;;;;;11.70;92139.00;;;;7381624;19;20595;-77
2022/11/17 12:13:55;;;;;;;8.60;1.20;;;;;11.90;92143.00;;;;7382135;19;20619;-77
2022/11/17 12:16:38;;;;;;;3.00;1.15;;;;;11.80;92125.00;;;;7382006;19;20160;-76
2022/11/17 12:19:45;;;;;;;6.20;1.40;;;;;12.50;92137.00;;;;7385074;19;20168;-77
2022/11/17 12:22:24;;;;;;;5.57;1.40;;;;;12.50;92125.00;;;;7383647;19;20143;-77
2022/11/17 12:25:17;;;;;;;7.70;1.50;;;;;12.10;92133.00;;;;7380572;19;20216;-76
2022/11/17 12:27:52;;;;;;;4.00;1.50;;;;;10.60;92160.00;;;;7376702;19;20163;-77
2022/11/17 12:30:32;;;;;;;3.55;1.52;;;;;11.10;92130.00;;;;7381905;19;20511;-75
2022/11/17 12:33:07;;;;;;;5.40;1.52;;;;;11.90;92114.00;;;;7383580;19;20129;-78
2022/11/17 12:35:39;;;;;;;6.18;1.35;;;;;12.30;92108.00;;;;7382962;19;20136;-77
2022/11/17 12:38:15;;;;;;;9.55;1.58;;;;;13.10;92106.00;;;;7381809;19;20156;-77
2022/11/17 12:40:53;;;;;;;4.80;1.35;;;;;13.10;92097.00;;;;7380130;19;20177;-76
2022/11/17 12:43:28;;;;;;;6.55;1.45;;;;;13.30;92098.00;;;;7385354;19;20979;-76
2022/11/17 12:46:18;;;;;;;5.28;1.52;;;;;13.60;92095.00;;;;7382911;19;20568;-77
2022/11/17 12:49:15;;;;;;;7.72;1.77;;;;;13.40;92107.00;;;;7383907;19;20137;-75
2022/11/17 12:51:59;;;;;;;4.55;1.40;;;;;13.60;92112.00;;;;7381991;19;20619;-76
2022/11/17 12:54:39;;;;;;;4.75;1.40;;;;;13.90;92114.00;;;;7383660;19;20144;-76
2022/11/17 12:57:29;;;;;;;5.50;1.83;;;;;13.60;92105.00;;;;7380244;19;20155;-77
2022/11/17 13:00:19;;;;;;;4.30;1.52;;;;;13.20;92099.00;;;;7385893;19;20791;-75
2022/11/17 13:03:07;;;;;;;9.35;1.65;;;;;14.00;92100.00;;;;7388823;19;20638;-77
2022/11/17 13:05:43;;;;;;;6.72;1.45;;;;;14.00;92114.00;;;;7389263;19;20140;-75
2022/11/17 13:08:22;;;;;;;6.20;1.60;;;;;12.80;92135.00;;;;7386327;19;20160;-76
2022/11/17 13:11:06;;;;;;;6.22;2.00;;;;;12.40;92135.00;;;;7388220;19;21122;-77
2022/11/17 13:13:34;;;;;;;12.77;2.15;;;;;11.60;92136.00;;;;7389222;19;20584;-76
2022/11/17 13:16:25;;;;;;;8.30;1.90;;;;;12.20;92115.00;;;;7388734;19;20216;-76
2022/11/17 13:18:56;;;;;;;5.93;1.50;;;;;11.40;92112.00;;;;7388545;19;20148;-75
2022/11/17 13:21:32;;;;;;;6.85;1.63;;;;;11.90;92108.00;;;;7387173;19;20128;-76
2022/11/17 13:24:00;;;;;;;7.85;2.15;;;;;12.00;92093.00;;;;7388179;19;20145;-76
2022/11/17 13:26:37;;;;;;;6.65;2.00;;;;;12.80;92093.00;;;;7388075;19;20181;-75
2022/11/17 13:29:18;;;;;;;7.43;1.83;;;;;12.90;92095.00;;;;7386284;19;20651;-75
2022/11/17 13:31:46;;;;;;;6.78;2.17;;;;;13.20;92090.00;;;;7387584;19;20129;-76